createdAt,value
2018-04-12T00:01:49.937Z,12.81
2018-04-12T00:04:17.696Z,12.55
2018-04-12T00:06:45.338Z,12.59
2018-04-12T00:09:13.123Z,12.64
2018-04-12T00:11:40.879Z,12.66
2018-04-12T00:14:08.496Z,12.48
2018-04-12T00:16:36.205Z,12.45
2018-04-12T00:19:03.871Z,12.46
2018-04-12T00:21:31.740Z,12.33
2018-04-12T00:23:59.453Z,12.46
2018-04-12T00:26:27.375Z,12.47
2018-04-12T00:28:55.140Z,12.22
2018-04-12T00:31:23.205Z,12.11
2018-04-12T00:33:51.037Z,12.14
2018-04-12T00:36:18.886Z,11.96
2018-04-12T00:38:46.616Z,11.95
2018-04-12T00:41:14.543Z,12.20
2018-04-12T00:43:42.444Z,12.22
2018-04-12T00:46:10.297Z,12.28
2018-04-12T00:48:37.969Z,12.22
2018-04-12T00:51:05.727Z,12.32
2018-04-12T00:53:45.271Z,12.37
2018-04-12T00:56:13.139Z,12.47
2018-04-12T00:58:40.904Z,12.58
2018-04-12T01:01:08.771Z,12.57
2018-04-12T01:03:36.489Z,12.62
2018-04-12T01:06:04.232Z,12.62
2018-04-12T01:08:32.065Z,12.64
2018-04-12T01:10:59.827Z,12.69
2018-04-12T01:13:27.530Z,12.69
2018-04-12T01:15:55.459Z,12.63
2018-04-12T01:18:23.293Z,12.70
2018-04-12T01:20:51.092Z,12.58
2018-04-12T01:23:18.885Z,12.60
2018-04-12T01:25:46.617Z,12.48
2018-04-12T01:28:14.389Z,12.51
2018-04-12T01:30:42.357Z,12.55
2018-04-12T01:33:16.054Z,12.61
2018-04-12T01:35:43.824Z,12.59
2018-04-12T01:38:11.546Z,12.50
2018-04-12T01:40:39.352Z,12.64
2018-04-12T01:43:07.107Z,12.52
2018-04-12T01:45:34.983Z,12.59
2018-04-12T01:48:02.638Z,12.51
2018-04-12T01:50:30.476Z,12.51
2018-04-12T01:52:58.276Z,12.47
2018-04-12T01:55:26.143Z,12.35
2018-04-12T01:57:53.805Z,12.33
2018-04-12T02:00:21.672Z,12.35
2018-04-12T02:02:49.388Z,12.27
2018-04-12T02:05:17.151Z,12.29
2018-04-12T02:07:44.863Z,12.27
2018-04-12T02:10:12.684Z,12.19
2018-04-12T02:12:40.601Z,12.24
2018-04-12T02:15:08.464Z,12.19
2018-04-12T02:17:36.157Z,12.26
2018-04-12T02:20:03.989Z,12.31
2018-04-12T02:22:31.759Z,12.34
2018-04-12T02:24:59.521Z,12.37
2018-04-12T02:27:27.286Z,12.36
2018-04-12T02:29:55.114Z,12.28
2018-04-12T02:32:22.813Z,12.29
2018-04-12T02:34:50.526Z,12.30
2018-04-12T02:37:18.246Z,12.30
2018-04-12T02:39:45.954Z,12.20
2018-04-12T02:42:13.772Z,12.25
2018-04-12T02:44:41.498Z,12.30
2018-04-12T02:47:09.300Z,12.24
2018-04-12T02:49:37.024Z,12.30
2018-04-12T02:52:04.832Z,12.29
2018-04-12T02:54:32.593Z,12.33
2018-04-12T02:57:00.569Z,12.32
2018-04-12T02:59:28.220Z,12.33
2018-04-12T03:01:56.091Z,12.34
2018-04-12T03:04:23.823Z,12.39
2018-04-12T03:06:51.565Z,12.41
2018-04-12T03:09:19.283Z,12.32
2018-04-12T03:11:47.169Z,12.43
2018-04-12T03:14:14.973Z,12.38
2018-04-12T03:16:42.781Z,12.38
2018-04-12T03:19:10.440Z,12.38
2018-04-12T03:21:38.224Z,12.34
2018-04-12T03:24:05.970Z,12.36
2018-04-12T03:26:33.697Z,12.35
2018-04-12T03:29:01.608Z,12.38
2018-04-12T03:31:29.363Z,12.37
2018-04-12T03:33:57.121Z,12.42
2018-04-12T03:36:24.859Z,12.39
2018-04-12T03:38:52.614Z,12.34
2018-04-12T03:41:20.426Z,12.39
2018-04-12T03:43:48.244Z,12.32
2018-04-12T03:46:16.013Z,12.40
2018-04-12T03:48:44.098Z,12.37
2018-04-12T03:51:11.679Z,12.35
2018-04-12T03:53:39.659Z,12.34
2018-04-12T03:56:07.370Z,12.30
2018-04-12T03:58:35.187Z,12.26
2018-04-12T04:01:02.952Z,12.33
2018-04-12T04:03:30.801Z,12.23
2018-04-12T04:05:58.786Z,12.20
2018-04-12T04:08:26.559Z,12.10
2018-04-12T04:10:54.213Z,12.02
2018-04-12T04:13:22.082Z,12.02
2018-04-12T04:16:01.651Z,12.04
2018-04-12T04:18:41.365Z,11.97
2018-04-12T04:21:09.234Z,11.92
2018-04-12T04:23:37.099Z,11.94
2018-04-12T04:26:04.822Z,11.99
2018-04-12T04:28:32.731Z,11.99
2018-04-12T04:31:00.599Z,11.86
2018-04-12T04:33:28.364Z,11.89
2018-04-12T04:35:56.124Z,11.92
2018-04-12T04:38:23.852Z,11.94
2018-04-12T04:40:51.656Z,12.00
2018-04-12T04:43:19.481Z,11.95
2018-04-12T04:45:47.249Z,11.99
2018-04-12T04:48:15.082Z,12.02
2018-04-12T04:50:42.919Z,12.07
2018-04-12T04:53:10.595Z,12.09
2018-04-12T04:55:38.451Z,12.09
2018-04-12T04:58:06.314Z,12.07
2018-04-12T05:00:34.175Z,12.10
2018-04-12T05:03:01.989Z,12.09
2018-04-12T05:05:29.812Z,12.21
2018-04-12T05:07:57.576Z,12.24
2018-04-12T05:10:25.423Z,12.24
2018-04-12T05:12:53.210Z,12.32
2018-04-12T05:15:21.075Z,12.26
2018-04-12T05:17:48.841Z,12.31
2018-04-12T05:20:16.718Z,12.45
2018-04-12T05:22:44.583Z,12.43
2018-04-12T05:25:12.440Z,12.49
2018-04-12T05:27:40.207Z,12.42
2018-04-12T05:30:08.072Z,12.47
2018-04-12T05:32:35.797Z,12.46
2018-04-12T05:35:03.554Z,12.60
2018-04-12T05:37:31.275Z,12.71
2018-04-12T05:39:59.028Z,12.80
2018-04-12T05:42:26.753Z,12.89
2018-04-12T05:44:54.560Z,12.82
2018-04-12T05:47:22.424Z,12.85
2018-04-12T05:49:50.134Z,12.95
2018-04-12T05:52:17.951Z,13.14
2018-04-12T05:54:45.817Z,13.13
2018-04-12T05:57:13.787Z,13.02
2018-04-12T05:59:41.503Z,13.14
2018-04-12T06:02:09.359Z,13.28
2018-04-12T06:04:37.183Z,13.58
2018-04-12T06:07:04.997Z,13.63
2018-04-12T06:09:32.815Z,13.93
2018-04-12T06:12:00.552Z,14.22
2018-04-12T06:14:28.343Z,14.30
2018-04-12T06:16:56.264Z,14.30
2018-04-12T06:19:24.076Z,14.71
2018-04-12T06:21:51.841Z,14.61
2018-04-12T06:24:19.483Z,14.35
2018-04-12T06:26:47.146Z,13.93
2018-04-12T06:29:14.815Z,14.08
2018-04-12T06:31:42.445Z,14.17
2018-04-12T06:34:10.131Z,14.22
2018-04-12T06:36:37.774Z,14.62
2018-04-12T06:39:06.292Z,14.42
2018-04-12T06:41:33.909Z,14.20
2018-04-12T06:44:01.597Z,14.74
2018-04-12T06:46:29.222Z,14.98
2018-04-12T06:48:56.886Z,15.35
2018-04-12T06:51:24.518Z,15.15
2018-04-12T06:53:58.015Z,15.37
2018-04-12T06:56:25.626Z,15.67
2018-04-12T06:58:53.399Z,15.53
2018-04-12T07:01:21.030Z,15.95
2018-04-12T07:03:48.735Z,17.02
2018-04-12T07:06:16.391Z,18.06
2018-04-12T07:08:44.057Z,18.06
2018-04-12T07:11:11.675Z,18.34
2018-04-12T07:13:39.763Z,18.60
2018-04-12T07:16:07.657Z,19.19
2018-04-12T07:18:35.318Z,19.64
2018-04-12T07:21:03.048Z,19.95
2018-04-12T07:23:30.675Z,20.27
2018-04-12T07:25:58.377Z,19.94
2018-04-12T07:28:26.026Z,20.24
2018-04-12T07:30:53.736Z,20.26
2018-04-12T07:33:21.406Z,20.32
2018-04-12T07:35:49.069Z,20.52
2018-04-12T07:38:16.760Z,20.12
2018-04-12T07:40:44.484Z,20.37
2018-04-12T07:43:12.170Z,20.20
2018-04-12T07:45:39.852Z,21.36
2018-04-12T07:48:07.510Z,21.36
2018-04-12T07:50:35.130Z,21.12
2018-04-12T07:53:02.780Z,20.41
2018-04-12T07:55:30.454Z,19.78
2018-04-12T07:57:58.179Z,20.74
2018-04-12T08:00:25.799Z,20.43
2018-04-12T08:02:53.479Z,20.49
2018-04-12T08:05:21.102Z,20.17
2018-04-12T08:07:48.766Z,19.29
2018-04-12T08:10:16.390Z,19.42
2018-04-12T08:12:44.132Z,19.72
2018-04-12T08:15:11.791Z,19.79
2018-04-12T08:17:39.435Z,20.24
2018-04-12T08:20:07.100Z,19.95
2018-04-12T08:22:34.761Z,20.14
2018-04-12T08:25:02.381Z,20.15
2018-04-12T08:27:30.035Z,20.53
2018-04-12T08:29:57.669Z,20.47
2018-04-12T08:32:25.348Z,20.80
2018-04-12T08:34:52.964Z,21.43
2018-04-12T08:37:20.627Z,21.59
2018-04-12T08:39:48.269Z,22.51
2018-04-12T08:42:15.934Z,22.47
2018-04-12T08:44:43.580Z,21.15
2018-04-12T08:47:11.244Z,21.15
2018-04-12T08:49:38.931Z,21.34
2018-04-12T08:52:06.607Z,21.96
2018-04-12T08:54:34.234Z,22.30
2018-04-12T08:57:01.933Z,23.20
2018-04-12T08:59:29.583Z,22.76
2018-04-12T09:01:57.264Z,23.11
2018-04-12T09:04:24.936Z,21.98
2018-04-12T09:06:52.552Z,21.58
2018-04-12T09:09:20.252Z,22.37
2018-04-12T09:11:47.902Z,22.20
2018-04-12T09:14:15.593Z,22.13
2018-04-12T09:16:43.263Z,21.69
2018-04-12T09:19:10.923Z,21.72
2018-04-12T09:21:38.555Z,20.95
2018-04-12T09:24:06.224Z,21.33
2018-04-12T09:26:33.856Z,21.33
2018-04-12T09:29:01.533Z,21.31
2018-04-12T09:31:29.187Z,20.65
2018-04-12T09:33:56.932Z,20.71
2018-04-12T09:36:24.563Z,20.80
2018-04-12T09:38:52.234Z,21.14
2018-04-12T09:41:19.903Z,21.48
2018-04-12T09:43:47.563Z,21.11
2018-04-12T09:46:15.231Z,21.31
2018-04-12T09:48:42.914Z,20.88
2018-04-12T09:51:10.551Z,20.71
2018-04-12T09:53:38.220Z,20.39
2018-04-12T09:56:05.855Z,19.96
2018-04-12T09:58:33.533Z,19.87
2018-04-12T10:01:01.203Z,19.82
2018-04-12T10:03:28.963Z,19.64
2018-04-12T10:06:02.075Z,19.72
2018-04-12T10:08:29.829Z,18.99
2018-04-12T10:10:57.455Z,19.89
2018-04-12T10:13:25.203Z,19.65
2018-04-12T10:15:52.904Z,19.67
2018-04-12T10:18:20.573Z,20.10
2018-04-12T10:20:48.197Z,20.16
2018-04-12T10:23:15.876Z,20.18
2018-04-12T10:25:43.550Z,20.57
2018-04-12T10:28:11.209Z,20.47
2018-04-12T10:30:38.885Z,20.16
2018-04-12T10:33:06.595Z,20.77
2018-04-12T10:35:34.222Z,20.41
2018-04-12T10:38:01.894Z,20.26
2018-04-12T10:40:29.522Z,20.64
2018-04-12T10:42:57.205Z,20.69
2018-04-12T10:45:24.885Z,20.60
2018-04-12T10:47:52.607Z,21.11
2018-04-12T10:50:20.267Z,21.30
2018-04-12T10:52:47.958Z,21.62
2018-04-12T10:55:15.579Z,21.20
2018-04-12T10:57:43.236Z,20.74
2018-04-12T11:00:10.874Z,20.57
2018-04-12T11:02:38.575Z,20.13
2018-04-12T11:05:06.232Z,20.86
2018-04-12T11:07:34.317Z,21.18
2018-04-12T11:10:01.985Z,20.84
2018-04-12T11:12:29.619Z,20.30
2018-04-12T11:14:57.283Z,20.46
2018-04-12T11:17:24.926Z,20.30
2018-04-12T11:19:52.614Z,20.35
2018-04-12T11:22:20.252Z,20.49
2018-04-12T11:24:47.952Z,20.94
2018-04-12T11:27:15.581Z,20.57
2018-04-12T11:29:43.252Z,20.95
2018-04-12T11:32:10.877Z,21.23
2018-04-12T11:34:38.616Z,21.45
2018-04-12T11:37:06.258Z,21.35
2018-04-12T11:39:33.925Z,21.45
2018-04-12T11:42:02.484Z,21.46
2018-04-12T11:44:30.162Z,22.07
2018-04-12T11:46:57.794Z,22.42
2018-04-12T11:49:25.524Z,22.37
2018-04-12T11:51:53.142Z,22.16
2018-04-12T11:54:20.819Z,22.51
2018-04-12T11:56:48.498Z,21.81
2018-04-12T11:59:16.176Z,21.89
2018-04-12T12:01:43.866Z,21.41
2018-04-12T12:04:11.523Z,21.24
2018-04-12T12:06:39.206Z,21.61
2018-04-12T12:09:06.911Z,21.63
2018-04-12T12:11:34.551Z,21.88
2018-04-12T12:14:02.231Z,21.97
2018-04-12T12:16:29.873Z,22.43
2018-04-12T12:18:57.523Z,22.93
2018-04-12T12:21:25.181Z,23.05
2018-04-12T12:23:52.865Z,22.92
2018-04-12T12:26:20.512Z,22.48
2018-04-12T12:28:48.207Z,22.13
2018-04-12T12:31:15.840Z,22.78
2018-04-12T12:33:43.550Z,22.22
2018-04-12T12:36:11.164Z,22.19
2018-04-12T12:38:38.868Z,21.61
2018-04-12T12:41:06.497Z,22.32
2018-04-12T12:43:34.170Z,22.46
2018-04-12T12:46:01.822Z,21.68
2018-04-12T12:48:29.480Z,21.68
2018-04-12T12:50:57.160Z,21.25
2018-04-12T12:53:24.832Z,21.28
2018-04-12T12:55:52.482Z,21.20
2018-04-12T12:58:20.136Z,21.82
2018-04-12T13:00:47.759Z,22.14
2018-04-12T13:03:15.406Z,21.95
2018-04-12T13:05:43.072Z,22.16
2018-04-12T13:08:10.723Z,22.29
2018-04-12T13:10:38.374Z,21.97
2018-04-12T13:13:06.063Z,23.32
2018-04-12T13:15:33.694Z,23.77
2018-04-12T13:18:01.306Z,23.84
2018-04-12T13:20:28.969Z,24.39
2018-04-12T13:22:56.599Z,23.52
2018-04-12T13:25:24.258Z,23.96
2018-04-12T13:27:51.924Z,24.39
2018-04-12T13:30:19.589Z,24.00
2018-04-12T13:32:47.227Z,24.25
2018-04-12T13:35:14.905Z,23.87
2018-04-12T13:37:42.530Z,24.97
2018-04-12T13:40:10.333Z,24.74
2018-04-12T13:42:38.303Z,24.01
2018-04-12T13:45:06.272Z,23.72
2018-04-12T13:47:34.003Z,23.90
2018-04-12T13:50:01.804Z,23.81
2018-04-12T13:52:29.570Z,24.40
2018-04-12T13:54:57.440Z,23.05
2018-04-12T13:57:25.171Z,23.54
2018-04-12T13:59:52.959Z,24.13
2018-04-12T14:02:20.681Z,25.17
2018-04-12T14:04:48.490Z,23.45
2018-04-12T14:07:16.160Z,24.04
2018-04-12T14:09:44.019Z,22.90
2018-04-12T14:12:11.748Z,22.78
2018-04-12T14:14:39.440Z,22.60
2018-04-12T14:17:07.211Z,21.83
2018-04-12T14:19:35.076Z,21.81
2018-04-12T14:22:02.816Z,22.35
2018-04-12T14:24:30.709Z,22.55
2018-04-12T14:26:58.463Z,22.72
2018-04-12T14:29:26.236Z,22.11
2018-04-12T14:31:54.079Z,22.21
2018-04-12T14:34:21.824Z,22.59
2018-04-12T14:36:49.733Z,23.20
2018-04-12T14:39:17.499Z,24.06
2018-04-12T14:41:45.394Z,24.40
2018-04-12T14:44:13.224Z,24.13
2018-04-12T14:46:40.936Z,23.66
2018-04-12T14:49:08.862Z,23.05
2018-04-12T14:51:36.569Z,22.79
2018-04-12T14:54:04.388Z,22.59
2018-04-12T14:56:32.158Z,22.49
2018-04-12T14:58:59.915Z,23.69
2018-04-12T15:01:27.643Z,23.99
2018-04-12T15:03:55.416Z,24.22
2018-04-12T15:06:23.327Z,23.55
2018-04-12T15:08:51.088Z,24.18
2018-04-12T15:11:18.846Z,23.73
2018-04-12T15:13:46.719Z,24.10
2018-04-12T15:16:14.425Z,22.97
2018-04-12T15:18:42.241Z,22.40
2018-04-12T15:21:09.911Z,22.37
2018-04-12T15:23:37.775Z,22.46
2018-04-12T15:26:05.430Z,22.22
2018-04-12T15:28:33.204Z,22.04
2018-04-12T15:31:01.023Z,21.74
2018-04-12T15:33:28.825Z,21.66
2018-04-12T15:35:56.591Z,22.15
2018-04-12T15:38:24.317Z,21.66
2018-04-12T15:40:52.048Z,21.41
2018-04-12T15:43:19.785Z,21.64
2018-04-12T15:45:47.650Z,22.07
2018-04-12T15:48:15.414Z,21.97
2018-04-12T15:50:43.177Z,21.75
2018-04-12T15:53:10.975Z,22.03
2018-04-12T15:55:39.835Z,21.87
2018-04-12T15:58:07.614Z,21.72
2018-04-12T16:00:35.568Z,21.52
2018-04-12T16:03:03.334Z,21.28
2018-04-12T16:05:30.994Z,21.33
2018-04-12T16:07:58.656Z,21.23
2018-04-12T16:10:26.422Z,21.28
2018-04-12T16:12:54.191Z,21.19
2018-04-12T16:15:22.052Z,21.13
2018-04-12T16:17:49.820Z,20.83
2018-04-12T16:20:18.000Z,21.12
2018-04-12T16:22:45.759Z,21.13
2018-04-12T16:25:13.518Z,20.91
2018-04-12T16:27:41.385Z,21.41
2018-04-12T16:30:09.154Z,21.80
2018-04-12T16:32:36.869Z,21.74
2018-04-12T16:35:04.580Z,21.41
2018-04-12T16:37:32.341Z,21.12
2018-04-12T16:40:00.109Z,21.12
2018-04-12T16:42:27.841Z,20.88
2018-04-12T16:44:55.532Z,20.78
2018-04-12T16:47:23.292Z,20.54
2018-04-12T16:49:51.118Z,20.71
2018-04-12T16:52:19.032Z,20.59
2018-04-12T16:54:46.743Z,20.70
2018-04-12T16:57:14.560Z,20.77
2018-04-12T16:59:42.215Z,20.67
2018-04-12T17:02:09.870Z,20.74
2018-04-12T17:04:37.496Z,20.61
2018-04-12T17:07:05.179Z,20.63
2018-04-12T17:09:32.791Z,20.61
2018-04-12T17:12:00.440Z,20.57
2018-04-12T17:14:28.098Z,20.69
2018-04-12T17:16:55.822Z,20.83
2018-04-12T17:19:23.499Z,20.99
2018-04-12T17:21:51.146Z,21.05
2018-04-12T17:24:18.808Z,20.94
2018-04-12T17:26:46.412Z,20.95
2018-04-12T17:29:14.079Z,21.01
2018-04-12T17:31:41.689Z,20.99
2018-04-12T17:34:10.213Z,20.99
2018-04-12T17:36:37.896Z,20.98
2018-04-12T17:39:06.521Z,20.77
2018-04-12T17:41:34.179Z,20.75
2018-04-12T17:44:01.827Z,20.82
2018-04-12T17:46:29.463Z,20.73
2018-04-12T17:48:57.109Z,20.59
2018-04-12T17:51:24.711Z,20.65
2018-04-12T17:53:52.366Z,20.40
2018-04-12T17:56:20.041Z,20.39
2018-04-12T17:58:47.684Z,20.36
2018-04-12T18:01:15.316Z,20.23
2018-04-12T18:03:42.967Z,20.20
2018-04-12T18:06:10.588Z,20.16
2018-04-12T18:08:38.209Z,19.94
2018-04-12T18:11:05.855Z,19.66
2018-04-12T18:13:33.550Z,19.73
2018-04-12T18:16:01.207Z,19.74
2018-04-12T18:18:28.833Z,19.70
2018-04-12T18:20:56.500Z,19.57
2018-04-12T18:23:24.160Z,19.52
2018-04-12T18:25:51.820Z,19.39
2018-04-12T18:28:19.438Z,19.28
2018-04-12T18:30:47.094Z,19.24
2018-04-12T18:33:14.701Z,19.19
2018-04-12T18:35:42.352Z,19.06
2018-04-12T18:38:09.994Z,19.02
2018-04-12T18:40:37.664Z,19.00
2018-04-12T18:43:05.300Z,18.86
2018-04-12T18:45:32.955Z,18.79
2018-04-12T18:48:00.609Z,18.72
2018-04-12T18:50:28.306Z,18.48
2018-04-12T18:52:55.980Z,18.58
2018-04-12T18:55:23.658Z,18.43
2018-04-12T18:57:51.290Z,18.23
2018-04-12T19:00:19.000Z,18.02
2018-04-12T19:02:46.658Z,17.93
2018-04-12T19:05:14.267Z,18.00
2018-04-12T19:07:41.962Z,18.20
2018-04-12T19:10:09.591Z,18.27
2018-04-12T19:12:37.250Z,18.19
2018-04-12T19:15:04.924Z,18.10
2018-04-12T19:17:32.587Z,17.92
2018-04-12T19:20:00.201Z,17.87
2018-04-12T19:22:27.864Z,17.97
2018-04-12T19:24:55.621Z,17.93
2018-04-12T19:27:23.283Z,17.41
2018-04-12T19:29:50.931Z,17.24
2018-04-12T19:32:18.555Z,17.48
2018-04-12T19:34:46.250Z,17.35
2018-04-12T19:37:13.866Z,17.27
2018-04-12T19:39:41.514Z,16.83
2018-04-12T19:42:09.164Z,16.89
2018-04-12T19:44:36.877Z,17.02
2018-04-12T19:47:04.758Z,17.14
2018-04-12T19:49:33.448Z,17.09
2018-04-12T19:52:01.104Z,16.69
2018-04-12T19:54:28.721Z,16.74
2018-04-12T19:56:56.488Z,16.85
2018-04-12T19:59:24.135Z,16.93
2018-04-12T20:01:51.803Z,16.61
2018-04-12T20:04:19.428Z,16.62
2018-04-12T20:06:47.110Z,16.63
2018-04-12T20:09:14.720Z,16.62
2018-04-12T20:11:42.379Z,16.13
2018-04-12T20:14:10.007Z,15.92
2018-04-12T20:16:37.735Z,16.12
2018-04-12T20:19:05.354Z,16.24
2018-04-12T20:21:33.028Z,15.96
2018-04-12T20:24:00.654Z,16.08
2018-04-12T20:26:28.323Z,16.16
2018-04-12T20:28:55.955Z,16.20
2018-04-12T20:31:23.611Z,16.08
2018-04-12T20:33:51.774Z,16.11
2018-04-12T20:36:19.539Z,16.20
2018-04-12T20:38:47.198Z,16.29
2018-04-12T20:41:14.868Z,16.33
2018-04-12T20:43:42.511Z,16.05
2018-04-12T20:46:10.234Z,15.97
2018-04-12T20:48:37.867Z,15.73
2018-04-12T20:51:05.581Z,15.46
2018-04-12T20:53:33.223Z,15.44
2018-04-12T20:56:00.883Z,15.86
2018-04-12T20:58:28.557Z,15.76
2018-04-12T21:00:56.236Z,15.71
2018-04-12T21:03:23.876Z,15.70
2018-04-12T21:05:51.586Z,15.57
2018-04-12T21:08:19.256Z,15.57
2018-04-12T21:10:46.927Z,15.57
2018-04-12T21:13:14.560Z,15.56
2018-04-12T21:15:42.386Z,15.59
2018-04-12T21:18:10.002Z,15.40
2018-04-12T21:20:37.648Z,15.42
2018-04-12T21:23:05.328Z,15.08
2018-04-12T21:25:33.034Z,14.97
2018-04-12T21:28:00.648Z,15.01
2018-04-12T21:30:28.334Z,14.82
2018-04-12T21:32:55.959Z,15.21
2018-04-12T21:35:23.631Z,15.43
2018-04-12T21:37:51.286Z,15.47
2018-04-12T21:40:18.965Z,15.37
2018-04-12T21:42:46.576Z,15.29
2018-04-12T21:45:14.236Z,15.17
2018-04-12T21:47:41.863Z,15.26
2018-04-12T21:50:09.580Z,15.35
2018-04-12T21:52:37.480Z,15.41
2018-04-12T21:55:05.135Z,15.59
2018-04-12T21:57:32.788Z,15.60
2018-04-12T22:00:00.416Z,15.55
2018-04-12T22:02:28.086Z,15.32
2018-04-12T22:04:55.697Z,15.31
2018-04-12T22:07:23.372Z,15.36
2018-04-12T22:09:50.988Z,15.29
2018-04-12T22:12:18.659Z,15.19
2018-04-12T22:14:46.279Z,15.22
2018-04-12T22:17:14.003Z,15.36
2018-04-12T22:19:41.630Z,15.52
2018-04-12T22:22:09.309Z,15.56
2018-04-12T22:24:36.926Z,15.57
2018-04-12T22:27:04.627Z,15.54
2018-04-12T22:29:32.254Z,15.35
2018-04-12T22:31:59.927Z,15.35
2018-04-12T22:34:27.555Z,15.49
2018-04-12T22:36:55.287Z,15.43
2018-04-12T22:39:22.935Z,15.23
2018-04-12T22:41:50.597Z,15.37
2018-04-12T22:44:18.216Z,15.30
2018-04-12T22:46:45.899Z,15.25
2018-04-12T22:49:13.528Z,15.20
2018-04-12T22:51:41.178Z,15.18
2018-04-12T22:54:08.817Z,15.13
2018-04-12T22:56:36.479Z,15.29
2018-04-12T22:59:04.155Z,15.23
2018-04-12T23:01:31.826Z,15.30
2018-04-12T23:03:59.446Z,15.23
2018-04-12T23:06:27.151Z,15.22
2018-04-12T23:08:54.804Z,15.33
2018-04-12T23:11:22.461Z,15.30
2018-04-12T23:13:50.100Z,15.27
2018-04-12T23:16:17.753Z,15.12
2018-04-12T23:18:45.444Z,15.21
2018-04-12T23:21:13.106Z,15.10
2018-04-12T23:23:40.731Z,15.27
2018-04-12T23:28:42.095Z,15.10
2018-04-12T23:31:09.750Z,15.26
2018-04-12T23:33:37.370Z,15.27
2018-04-12T23:36:05.020Z,15.32
2018-04-12T23:38:32.647Z,15.33
2018-04-12T23:41:00.334Z,15.31
2018-04-12T23:43:27.956Z,15.31
2018-04-12T23:45:55.620Z,15.26
2018-04-12T23:48:23.259Z,15.36
2018-04-12T23:50:50.915Z,15.34
2018-04-12T23:53:18.573Z,15.33
2018-04-12T23:55:46.258Z,15.26
2018-04-12T23:58:13.931Z,15.29
